Time;durP1;ratioP1;P1;durP2;ratioP2;P2;SDS_P1;SDS_P2;PMS_P1;PMS_P2;Temp;Humidity;BMP_temperature;BMP_pressure;BME280_temperature;BME280_humidity;BME280_pressure;Samples;Min_cycle;Max_cycle;Signal;HPM_P1;HPM_P2
2022/09/23 00:01:15;;;;;;;4.95;1.20;;;6.70;99.90;;;;;;5068368;28;19920;-68
2022/09/23 00:03:41;;;;;;;;;;;6.70;99.90;;;;;;5070055;28;20080;-68
2022/09/23 00:06:13;;;;;;;2.63;1.25;;;6.70;99.90;;;;;;5071134;28;19925;-67
2022/09/23 00:08:39;;;;;;;3.10;1.60;;;6.70;99.90;;;;;;5065349;28;20053;-67
2022/09/23 00:11:07;;;;;;;3.88;1.40;;;6.70;99.90;;;;;;5070097;28;20055;-69
2022/09/23 00:13:34;;;;;;;3.95;1.58;;;6.70;99.90;;;;;;5067456;28;20036;-68
2022/09/23 00:16:05;;;;;;;7.22;1.60;;;6.70;99.90;;;;;;5071935;28;20113;-70
2022/09/23 00:18:31;;;;;;;3.63;1.77;;;6.70;99.90;;;;;;5055545;28;20041;-67
2022/09/23 00:20:56;;;;;;;;;;;6.70;99.90;;;;;;5053232;28;20472;-71
2022/09/23 00:23:22;;;;;;;7.20;1.80;;;6.60;99.90;;;;;;5053970;28;19932;-68
2022/09/23 00:25:55;;;;;;;;;;;6.60;99.90;;;;;;5059123;28;20040;-71
2022/09/23 00:28:20;;;;;;;2.83;1.30;;;6.60;99.90;;;;;;5057479;28;19967;-67
2022/09/23 00:30:46;;;;;;;;;;;6.50;99.90;;;;;;5059588;28;20056;-67
2022/09/23 00:33:11;;;;;;;4.10;1.60;;;6.50;99.90;;;;;;5053149;28;19927;-67
2022/09/23 00:35:37;;;;;;;;;;;6.50;99.90;;;;;;5059871;28;20048;-69
2022/09/23 00:38:03;;;;;;;4.40;1.50;;;6.50;99.90;;;;;;5051208;28;20311;-67
2022/09/23 00:40:28;;;;;;;;;;;6.50;99.90;;;;;;5052561;28;20382;-68
2022/09/23 00:42:54;;;;;;;2.75;1.40;;;6.40;99.90;;;;;;5052619;28;20062;-67
2022/09/23 00:45:19;;;;;;;1.98;1.23;;;6.50;99.90;;;;;;5051484;28;20032;-68
2022/09/23 00:47:53;;;;;;;;;;;6.40;99.90;;;;;;5053366;28;20183;-67
2022/09/23 00:50:29;;;;;;;3.10;1.30;;;6.40;99.90;;;;;;5051188;28;20334;-67
2022/09/23 00:52:58;;;;;;;1.83;1.02;;;6.30;99.90;;;;;;5045610;28;20041;-69
2022/09/23 00:55:56;;;;;;;3.65;1.02;;;6.30;99.90;;;;;;5057264;28;20183;-67
2022/09/23 00:58:26;;;;;;;1.55;1.10;;;6.40;99.90;;;;;;5045562;28;20049;-67
2022/09/23 01:00:53;;;;;;;2.70;1.65;;;6.30;99.90;;;;;;5050789;28;20056;-67
2022/09/23 01:03:21;;;;;;;4.60;1.52;;;6.30;99.90;;;;;;5052134;28;20051;-68
2022/09/23 01:05:47;;;;;;;2.78;1.73;;;6.30;99.90;;;;;;5056569;28;20048;-67
2022/09/23 01:08:13;;;;;;;;;;;6.30;99.90;;;;;;5051879;28;20029;-67
2022/09/23 01:10:50;;;;;;;3.85;1.50;;;6.30;99.90;;;;;;5054951;28;19919;-68
2022/09/23 01:13:27;;;;;;;1.92;1.35;;;6.30;99.90;;;;;;5053761;28;20036;-68
2022/09/23 01:16:03;;;;;;;4.85;1.65;;;6.30;99.90;;;;;;5049242;28;20075;-69
2022/09/23 01:18:38;;;;;;;5.88;1.65;;;6.30;99.90;;;;;;5052468;28;20448;-68
2022/09/23 01:21:29;;;;;;;4.20;1.90;;;6.30;99.90;;;;;;5053929;28;20652;-67
2022/09/23 01:24:29;;;;;;;2.22;1.40;;;6.30;99.90;;;;;;5057155;28;20139;-67
2022/09/23 01:26:59;;;;;;;2.17;1.02;;;6.30;99.90;;;;;;5046176;28;20045;-67
2022/09/23 01:29:49;;;;;;;2.85;1.30;;;6.30;99.90;;;;;;5053430;28;20037;-70
2022/09/23 01:32:39;;;;;;;2.00;1.38;;;6.20;99.90;;;;;;5052912;28;20764;-69
2022/09/23 01:35:24;;;;;;;2.58;1.35;;;6.30;99.90;;;;;;5043641;28;20086;-68
2022/09/23 01:38:03;;;;;;;2.38;1.48;;;6.30;99.90;;;;;;5042915;28;20032;-67
2022/09/23 01:40:48;;;;;;;1.67;1.27;;;6.20;99.90;;;;;;5044276;28;20040;-69
2022/09/23 01:43:26;;;;;;;1.88;1.10;;;6.20;99.90;;;;;;5048146;28;20029;-68
2022/09/23 01:45:57;;;;;;;2.17;1.10;;;6.20;99.90;;;;;;5046481;28;20084;-68
2022/09/23 01:48:35;;;;;;;4.07;1.40;;;6.20;99.90;;;;;;5052519;28;20052;-67
2022/09/23 01:51:11;;;;;;;3.30;2.22;;;6.20;99.90;;;;;;5050253;28;20041;-69
2022/09/23 01:53:50;;;;;;;2.55;1.20;;;6.10;99.90;;;;;;5054112;28;20092;-71
2022/09/23 01:56:42;;;;;;;4.95;1.30;;;6.10;99.90;;;;;;5056368;28;20106;-67
2022/09/23 01:59:29;;;;;;;5.85;1.33;;;6.10;99.90;;;;;;5053147;28;20076;-68
2022/09/23 02:02:07;;;;;;;2.63;1.52;;;6.20;99.90;;;;;;5051856;28;20037;-67
2022/09/23 02:04:52;;;;;;;2.45;1.30;;;6.20;99.90;;;;;;5062229;28;20052;-68
2022/09/23 02:07:21;;;;;;;3.08;1.33;;;6.10;99.90;;;;;;5064509;28;20143;-69
2022/09/23 02:10:00;;;;;;;1.92;1.55;;;6.10;99.90;;;;;;5063811;28;20033;-68
2022/09/23 02:12:29;;;;;;;3.92;1.67;;;6.10;99.90;;;;;;5073455;28;20051;-71
2022/09/23 02:15:05;;;;;;;4.88;2.00;;;6.10;99.90;;;;;;5064539;28;20040;-68
2022/09/23 02:17:52;;;;;;;5.00;1.77;;;6.10;99.90;;;;;;5061516;28;20706;-69
2022/09/23 02:20:23;;;;;;;3.50;1.63;;;6.10;99.90;;;;;;5064326;28;20055;-70
2022/09/23 02:23:00;;;;;;;3.15;1.42;;;6.00;99.90;;;;;;5057101;28;20033;-67
2022/09/23 02:25:34;;;;;;;4.70;1.42;;;6.00;99.90;;;;;;5062148;28;20076;-68
2022/09/23 02:28:06;;;;;;;5.22;1.48;;;6.00;99.90;;;;;;5065030;28;20055;-68
2022/09/23 02:30:43;;;;;;;6.95;1.60;;;6.00;99.90;;;;;;5063905;28;20036;-68
2022/09/23 02:33:22;;;;;;;3.25;2.05;;;6.00;99.90;;;;;;5058539;28;20048;-69
2022/09/23 02:35:52;;;;;;;5.53;1.80;;;5.90;99.90;;;;;;5064661;28;20040;-68
2022/09/23 02:38:43;;;;;;;3.40;1.90;;;6.00;99.90;;;;;;5064174;28;20044;-69
2022/09/23 02:41:25;;;;;;;4.10;1.40;;;5.90;99.90;;;;;;5053263;28;20040;-72
2022/09/23 02:44:05;;;;;;;2.67;1.35;;;5.90;99.90;;;;;;5064183;28;20153;-70
2022/09/23 02:46:31;;;;;;;3.17;1.67;;;6.00;99.90;;;;;;5062082;28;20048;-68
2022/09/23 02:49:20;;;;;;;3.67;1.95;;;5.90;99.90;;;;;;5059453;28;20049;-68
2022/09/23 02:51:46;;;;;;;2.20;1.77;;;6.00;99.90;;;;;;5064563;28;20507;-68
2022/09/23 02:54:13;;;;;;;;;;;5.90;99.90;;;;;;5062733;28;20040;-68
2022/09/23 02:56:39;;;;;;;3.22;1.73;;;5.90;99.90;;;;;;5065006;28;19920;-69
2022/09/23 02:59:07;;;;;;;14.75;3.00;;;5.90;99.90;;;;;;5064218;28;20074;-69
2022/09/23 03:02:25;;;;;;;3.00;1.83;;;6.00;99.90;;;;;;5064543;28;20048;-68
2022/09/23 03:05:00;;;;;;;6.20;1.70;;;6.00;99.90;;;;;;5060567;28;20040;-67
2022/09/23 03:07:37;;;;;;;7.18;2.00;;;6.00;99.90;;;;;;5064238;28;20044;-68
2022/09/23 03:10:21;;;;;;;4.90;2.35;;;5.90;99.90;;;;;;5061934;28;20203;-69
2022/09/23 03:13:14;;;;;;;2.47;1.83;;;5.90;99.90;;;;;;5064489;28;20048;-69
2022/09/23 03:15:56;;;;;;;3.65;2.13;;;5.90;99.90;;;;;;5063103;28;20091;-67
2022/09/23 03:18:50;;;;;;;4.38;3.00;;;5.90;99.90;;;;;;5063423;28;20044;-68
2022/09/23 03:21:27;;;;;;;2.22;1.70;;;6.00;99.90;;;;;;5063521;28;20037;-68
2022/09/23 03:23:56;;;;;;;3.00;1.90;;;6.00;99.90;;;;;;5057135;28;20455;-67
2022/09/23 03:26:30;;;;;;;4.05;1.65;;;6.00;99.90;;;;;;5063924;28;20091;-68
2022/09/23 03:28:58;;;;;;;3.25;2.05;;;6.00;99.90;;;;;;5064142;28;20041;-68
2022/09/23 03:31:24;;;;;;;2.80;1.55;;;6.00;99.90;;;;;;5060401;28;20041;-68
2022/09/23 03:33:55;;;;;;;2.80;1.80;;;6.00;99.90;;;;;;5062591;28;20044;-68
2022/09/23 03:39:25;;;;;;;4.55;1.95;;;6.00;99.90;;;;;;5063555;28;20115;-69
2022/09/23 03:41:54;;;;;;;5.13;1.80;;;6.00;99.90;;;;;;5062794;28;20040;-69
2022/09/23 03:44:20;;;;;;;1.90;1.60;;;6.00;99.90;;;;;;5059500;28;20111;-67
2022/09/23 03:46:49;;;;;;;1.90;1.42;;;6.00;99.90;;;;;;5062399;28;20033;-67
2022/09/23 03:49:18;;;;;;;3.72;2.00;;;6.00;99.90;;;;;;5058995;28;20041;-68
2022/09/23 03:51:44;;;;;;;2.92;1.70;;;6.00;99.90;;;;;;5062139;28;20087;-68
2022/09/23 03:54:09;;;;;;;;;;;6.00;99.90;;;;;;5066683;28;20447;-67
2022/09/23 03:56:36;;;;;;;5.25;1.92;;;6.00;99.90;;;;;;5067625;28;20414;-68
2022/09/23 03:59:02;;;;;;;5.18;1.75;;;6.00;99.90;;;;;;5066573;28;20044;-68
2022/09/23 04:01:28;;;;;;;;;;;6.00;99.90;;;;;;5066911;28;20105;-67
2022/09/23 04:03:54;;;;;;;2.43;1.60;;;6.00;99.90;;;;;;5067445;28;20406;-68
2022/09/23 04:06:20;;;;;;;6.32;1.75;;;6.00;99.90;;;;;;5068137;28;20048;-67
2022/09/23 04:08:45;;;;;;;3.42;1.90;;;6.10;99.90;;;;;;5066754;28;20044;-67
2022/09/23 04:11:11;;;;;;;;;;;6.10;99.90;;;;;;5061032;28;20595;-68
2022/09/23 04:13:36;;;;;;;6.55;1.75;;;6.10;99.90;;;;;;5065631;28;19916;-67
2022/09/23 04:16:02;;;;;;;;;;;6.10;99.90;;;;;;5068066;28;20810;-67
2022/09/23 04:18:28;;;;;;;2.90;2.00;;;6.10;99.90;;;;;;5066993;28;20419;-72
2022/09/23 04:20:57;;;;;;;;;;;6.20;99.90;;;;;;5064284;28;20033;-68
2022/09/23 04:23:24;;;;;;;5.05;2.13;;;6.20;99.90;;;;;;5062192;28;20380;-67
2022/09/23 04:25:50;;;;;;;5.03;2.33;;;6.10;99.90;;;;;;5066835;28;20123;-68
2022/09/23 04:28:16;;;;;;;;;;;6.10;99.90;;;;;;5063868;28;20131;-68
2022/09/23 04:30:42;;;;;;;6.68;2.50;;;6.20;99.90;;;;;;5066495;28;19950;-68
2022/09/23 04:33:10;;;;;;;5.13;1.92;;;6.10;99.90;;;;;;5062345;28;20043;-71
2022/09/23 04:35:37;;;;;;;5.22;2.30;;;6.20;99.90;;;;;;5066957;28;20032;-68
2022/09/23 04:38:04;;;;;;;5.20;2.10;;;6.10;99.90;;;;;;5062315;28;20033;-67
2022/09/23 04:40:29;;;;;;;3.22;1.85;;;6.20;99.90;;;;;;5057444;28;20516;-68
2022/09/23 04:42:55;;;;;;;;;;;6.20;99.90;;;;;;5055281;28;20040;-67
2022/09/23 04:45:20;;;;;;;5.45;2.15;;;6.20;99.90;;;;;;5066628;28;19920;-67
2022/09/23 04:47:46;;;;;;;5.95;2.05;;;6.20;99.90;;;;;;5065921;28;20068;-68
2022/09/23 04:50:11;;;;;;;;;;;6.30;99.90;;;;;;5065932;28;20032;-68
2022/09/23 04:52:37;;;;;;;3.85;2.10;;;6.30;99.90;;;;;;5065717;28;19978;-67
2022/09/23 04:55:03;;;;;;;3.55;2.20;;;6.30;99.90;;;;;;5065759;28;20045;-68
2022/09/23 04:57:28;;;;;;;;;;;6.30;99.90;;;;;;5059375;28;20053;-69
2022/09/23 04:59:56;;;;;;;5.35;2.35;;;6.40;99.90;;;;;;5067055;28;20612;-68
2022/09/23 05:02:23;;;;;;;3.55;2.40;;;6.40;99.90;;;;;;5084369;28;20052;-68
2022/09/23 05:04:49;;;;;;;6.97;2.60;;;6.40;99.90;;;;;;5065860;28;20055;-69
2022/09/23 05:07:17;;;;;;;4.00;2.50;;;6.40;99.90;;;;;;5064485;28;20048;-68
2022/09/23 05:09:44;;;;;;;3.90;2.42;;;6.40;99.90;;;;;;5064388;28;20048;-68
2022/09/23 05:12:09;;;;;;;5.30;2.38;;;6.50;99.90;;;;;;5067324;28;20677;-67
2022/09/23 05:14:35;;;;;;;;;;;6.50;99.90;;;;;;5061821;28;20120;-68
2022/09/23 05:17:00;;;;;;;3.47;2.50;;;6.50;99.90;;;;;;5066973;28;19916;-68
2022/09/23 05:19:26;;;;;;;6.32;2.88;;;6.60;99.90;;;;;;5064188;28;20071;-67
2022/09/23 05:21:52;;;;;;;4.25;2.45;;;6.60;99.90;;;;;;5068256;28;20041;-67
2022/09/23 05:24:17;;;;;;;3.53;2.08;;;6.60;99.90;;;;;;5069109;28;20124;-69
2022/09/23 05:26:43;;;;;;;6.60;3.22;;;6.60;99.90;;;;;;5074717;28;20065;-71
2022/09/23 05:29:09;;;;;;;8.23;2.75;;;6.60;99.90;;;;;;5064133;28;20456;-69
2022/09/23 05:31:35;;;;;;;7.80;3.17;;;6.60;99.90;;;;;;5069616;28;20048;-68
2022/09/23 05:34:03;;;;;;;9.68;3.35;;;6.60;99.90;;;;;;5065942;28;20047;-68
2022/09/23 05:36:31;;;;;;;6.00;2.92;;;6.60;99.90;;;;;;5083337;28;20126;-68
2022/09/23 05:38:57;;;;;;;6.28;2.53;;;6.70;99.90;;;;;;5068702;28;20036;-68
2022/09/23 05:41:23;;;;;;;;;;;6.60;99.90;;;;;;5076817;28;20048;-68
2022/09/23 05:43:53;;;;;;;5.37;2.73;;;6.70;99.90;;;;;;5065016;28;20295;-68
2022/09/23 05:46:24;;;;;;;7.28;2.63;;;6.70;99.90;;;;;;5081734;28;20093;-67
2022/09/23 05:48:50;;;;;;;4.80;2.58;;;6.80;99.90;;;;;;5064948;28;20044;-66
2022/09/23 05:51:21;;;;;;;9.75;3.05;;;6.90;99.90;;;;;;5074228;28;20528;-66
2022/09/23 05:53:47;;;;;;;6.07;2.42;;;6.90;99.90;;;;;;5075288;28;20094;-67
2022/09/23 05:56:18;;;;;;;4.03;2.50;;;6.90;99.90;;;;;;5073987;28;20048;-64
2022/09/23 05:58:44;;;;;;;7.32;3.17;;;7.00;99.90;;;;;;5076682;28;20048;-66
2022/09/23 06:01:09;;;;;;;;;;;7.00;99.90;;;;;;5070165;28;20405;-68
2022/09/23 06:03:35;;;;;;;10.23;2.95;;;6.90;99.90;;;;;;5071931;28;19956;-70
2022/09/23 06:06:01;;;;;;;;;;;6.90;99.90;;;;;;5076410;28;20080;-69
2022/09/23 06:08:26;;;;;;;5.45;2.80;;;7.00;99.90;;;;;;5071174;28;20370;-69
2022/09/23 06:10:52;;;;;;;5.00;3.38;;;7.00;99.90;;;;;;5075925;28;20040;-67
2022/09/23 06:13:17;;;;;;;;;;;7.00;99.90;;;;;;5073359;28;20032;-68
2022/09/23 06:15:43;;;;;;;6.18;2.67;;;7.00;99.90;;;;;;5078088;28;20344;-66
2022/09/23 06:18:10;;;;;;;8.93;3.20;;;7.00;99.90;;;;;;5073308;28;20035;-67
2022/09/23 06:20:36;;;;;;;3.78;2.40;;;6.90;99.90;;;;;;5084144;28;20048;-69
2022/09/23 06:23:05;;;;;;;;;;;7.00;99.90;;;;;;5072781;28;20035;-65
2022/09/23 06:25:35;;;;;;;3.72;2.60;;;7.00;99.90;;;;;;5078895;28;20008;-66
2022/09/23 06:28:01;;;;;;;4.35;2.42;;;7.00;99.90;;;;;;5071589;28;20032;-67
2022/09/23 06:30:27;;;;;;;3.72;2.72;;;7.00;99.90;;;;;;5077927;28;20044;-67
2022/09/23 06:32:55;;;;;;;4.90;2.95;;;7.00;99.90;;;;;;5071697;28;20043;-66
2022/09/23 06:35:23;;;;;;;10.38;3.25;;;7.00;99.90;;;;;;5074836;28;20032;-63
2022/09/23 06:37:49;;;;;;;10.48;3.97;;;7.00;99.90;;;;;;5063583;28;20137;-64
2022/09/23 06:40:15;;;;;;;;;;;7.10;99.90;;;;;;5068868;28;20717;-67
2022/09/23 06:42:41;;;;;;;7.85;3.45;;;7.10;99.90;;;;;;5075617;28;19959;-67
2022/09/23 06:45:08;;;;;;;6.63;2.58;;;7.10;99.90;;;;;;5065941;28;20036;-66
2022/09/23 06:47:36;;;;;;;8.43;3.38;;;7.10;99.90;;;;;;5064674;28;20041;-67
2022/09/23 06:50:02;;;;;;;5.43;3.03;;;7.20;99.90;;;;;;5055894;28;20040;-66
2022/09/23 06:52:28;;;;;;;6.25;3.13;;;7.30;99.90;;;;;;5064844;28;20376;-66
2022/09/23 06:54:54;;;;;;;;;;;7.50;99.90;;;;;;5074103;28;20057;-66
2022/09/23 06:57:20;;;;;;;5.70;3.40;;;7.60;99.90;;;;;;5074134;28;20292;-67
2022/09/23 06:59:45;;;;;;;;;;;7.70;99.90;;;;;;5090322;28;20032;-67
2022/09/23 07:02:11;;;;;;;7.35;3.13;;;7.90;99.90;;;;;;5064640;28;19940;-67
2022/09/23 07:04:37;;;;;;;6.45;3.20;;;8.00;99.90;;;;;;5064407;28;20044;-66
2022/09/23 07:07:03;;;;;;;;;;;8.10;99.90;;;;;;5064828;28;20036;-67
2022/09/23 07:09:28;;;;;;;9.02;3.45;;;8.20;99.90;;;;;;5057492;28;19924;-67
2022/09/23 07:11:54;;;;;;;;;;;8.30;99.90;;;;;;5064460;28;20064;-67
2022/09/23 07:14:20;;;;;;;10.15;3.72;;;8.50;99.90;;;;;;5063123;28;20017;-67
2022/09/23 07:16:49;;;;;;;8.35;3.30;;;8.60;99.90;;;;;;5064258;28;20067;-70
2022/09/23 07:19:15;;;;;;;7.65;3.42;;;8.70;99.90;;;;;;5061650;28;20048;-67
2022/09/23 07:21:41;;;;;;;;;;;8.70;99.90;;;;;;5063827;28;20386;-67
2022/09/23 07:24:07;;;;;;;4.38;2.83;;;8.80;99.90;;;;;;5062356;28;20187;-69
2022/09/23 07:26:33;;;;;;;4.15;3.00;;;8.90;99.90;;;;;;5063894;28;20045;-68
2022/09/23 07:29:03;;;;;;;;;;;9.10;99.90;;;;;;5067515;28;20381;-66
2022/09/23 07:31:30;;;;;;;4.43;2.60;;;9.20;99.90;;;;;;5052551;28;19920;-67
2022/09/23 07:33:57;;;;;;;8.25;2.90;;;9.30;99.90;;;;;;5045029;28;20588;-66
2022/09/23 07:36:26;;;;;;;5.88;2.92;;;9.40;99.90;;;;;;5048069;28;20071;-66
2022/09/23 07:38:54;;;;;;;3.90;2.80;;;9.40;99.90;;;;;;5045256;28;20456;-67
2022/09/23 07:41:19;;;;;;;4.45;2.08;;;9.50;99.90;;;;;;5049107;28;20044;-66
2022/09/23 07:43:45;;;;;;;;;;;9.60;99.90;;;;;;5043369;28;20037;-66
2022/09/23 07:46:15;;;;;;;4.45;2.40;;;9.80;99.90;;;;;;5047930;28;19932;-66
2022/09/23 07:48:41;;;;;;;2.55;2.05;;;9.90;99.90;;;;;;5048233;28;20083;-68
2022/09/23 07:51:10;;;;;;;;;;;9.90;99.90;;;;;;5044468;28;20056;-66
2022/09/23 07:53:36;;;;;;;3.53;2.33;;;10.10;99.90;;;;;;5046751;28;19921;-66
2022/09/23 07:56:05;;;;;;;;;;;10.10;99.90;;;;;;5048308;28;20048;-68
2022/09/23 07:58:31;;;;;;;4.03;2.08;;;10.20;99.90;;;;;;5046486;28;19916;-67
2022/09/23 08:01:09;;;;;;;7.68;2.38;;;10.40;99.90;;;;;;5043841;28;20120;-66
2022/09/23 08:03:35;;;;;;;2.65;1.90;;;10.50;99.90;;;;;;5046101;28;20072;-66
2022/09/23 08:06:11;;;;;;;6.30;2.22;;;10.60;99.90;;;;;;5046589;28;20521;-66
2022/09/23 08:08:39;;;;;;;;;;;10.70;99.90;;;;;;5047441;28;20044;-66
2022/09/23 08:11:07;;;;;;;3.30;1.88;;;10.90;99.90;;;;;;5040554;28;19916;-66
2022/09/23 08:13:33;;;;;;;3.25;2.20;;;11.10;99.90;;;;;;5044819;28;20029;-69
2022/09/23 08:15:58;;;;;;;;;;;11.50;99.90;;;;;;5046849;28;20044;-66
2022/09/23 08:18:25;;;;;;;3.47;1.58;;;12.20;99.90;;;;;;5046958;28;19951;-66
2022/09/23 08:20:51;;;;;;;7.28;2.25;;;12.80;99.90;;;;;;5047002;28;20033;-67
2022/09/23 08:23:17;;;;;;;;;;;12.80;99.90;;;;;;5046479;28;20043;-66
2022/09/23 08:25:45;;;;;;;2.10;1.30;;;12.70;99.90;;;;;;5046175;28;19991;-66
2022/09/23 08:28:14;;;;;;;4.22;1.73;;;12.60;99.90;;;;;;5046342;28;20179;-66
2022/09/23 08:30:41;;;;;;;3.40;1.50;;;12.50;99.90;;;;;;5047350;28;20037;-66
2022/09/23 08:33:06;;;;;;;2.53;1.50;;;12.50;99.90;;;;;;5045584;28;20056;-67
2022/09/23 08:35:32;;;;;;;;;;;12.50;99.90;;;;;;5048624;28;20037;-66
2022/09/23 08:37:57;;;;;;;2.03;1.23;;;12.70;99.90;;;;;;5044575;28;19924;-69
2022/09/23 08:40:23;;;;;;;;;;;12.80;99.90;;;;;;5047787;28;20390;-66
2022/09/23 08:42:48;;;;;;;6.43;1.80;;;12.80;99.90;;;;;;5046531;28;19916;-67
2022/09/23 08:45:25;;;;;;;;;;;13.00;99.60;;;;;;5047105;28;20029;-69
2022/09/23 08:47:50;;;;;;;2.78;1.38;;;13.10;98.90;;;;;;5038388;28;19932;-67
2022/09/23 08:50:19;;;;;;;;;;;13.30;99.90;;;;;;5046769;28;20036;-70
2022/09/23 08:53:06;;;;;;;4.72;1.20;;;13.40;98.90;;;;;;5045091;28;19927;-67
2022/09/23 08:55:34;;;;;;;3.38;1.50;;;13.50;99.70;;;;;;5044102;28;20072;-67
2022/09/23 08:58:21;;;;;;;2.88;1.77;;;13.60;98.30;;;;;;5041761;28;20793;-67
2022/09/23 09:01:21;;;;;;;4.97;1.73;;;13.70;97.30;;;;;;5036761;28;20052;-66
2022/09/23 09:04:00;;;;;;;4.70;1.77;;;13.90;97.10;;;;;;5045095;28;20028;-65
2022/09/23 09:06:33;;;;;;;1.92;1.40;;;14.00;96.50;;;;;;5041687;28;20040;-67
2022/09/23 09:09:01;;;;;;;3.67;1.45;;;14.10;95.30;;;;;;5044642;28;20032;-66
2022/09/23 09:11:34;;;;;;;1.92;1.45;;;14.20;95.50;;;;;;5044578;28;20037;-65
2022/09/23 09:14:29;;;;;;;2.08;1.48;;;14.40;95.40;;;;;;5037747;28;20107;-66
2022/09/23 09:17:09;;;;;;;7.00;1.40;;;14.40;94.80;;;;;;5039649;28;20547;-67
2022/09/23 09:19:54;;;;;;;2.60;1.70;;;14.60;94.80;;;;;;5044443;28;20048;-67
2022/09/23 09:22:41;;;;;;;2.80;1.50;;;14.60;93.90;;;;;;5042878;28;20516;-67
2022/09/23 09:25:28;;;;;;;1.70;1.33;;;14.60;93.90;;;;;;5030096;28;20034;-65
2022/09/23 09:27:55;;;;;;;2.03;1.40;;;14.70;93.90;;;;;;5038495;28;20053;-65
2022/09/23 09:30:21;;;;;;;2.22;1.45;;;14.90;93.50;;;;;;5042039;28;20041;-66
2022/09/23 09:32:50;;;;;;;;;;;15.00;93.80;;;;;;5042549;28;20044;-66
2022/09/23 09:35:35;;;;;;;2.25;1.67;;;15.10;93.20;;;;;;5038807;28;20015;-67
2022/09/23 09:38:01;;;;;;;3.92;1.40;;;15.20;93.00;;;;;;5045318;28;20075;-68
2022/09/23 09:40:27;;;;;;;;;;;15.10;92.80;;;;;;5041521;28;20036;-67
2022/09/23 09:42:52;;;;;;;4.35;1.58;;;15.10;92.50;;;;;;5040654;28;19921;-65
2022/09/23 09:45:18;;;;;;;;;;;15.00;92.80;;;;;;5040724;28;20044;-65
2022/09/23 09:48:09;;;;;;;4.22;1.50;;;14.90;92.50;;;;;;5038899;28;19929;-65
2022/09/23 09:50:50;;;;;;;5.20;1.45;;;14.90;92.80;;;;;;5043284;28;20060;-67
2022/09/23 09:53:24;;;;;;;4.55;1.52;;;14.90;93.30;;;;;;5044732;28;20522;-65
2022/09/23 09:56:09;;;;;;;2.75;1.52;;;15.00;92.70;;;;;;5045505;28;20037;-64
2022/09/23 09:59:24;;;;;;;2.28;1.30;;;15.00;92.80;;;;;;5069859;28;20099;-65
2022/09/23 10:02:21;;;;;;;6.25;1.55;;;15.00;92.80;;;;;;5006588;28;20040;-67
2022/09/23 10:04:58;;;;;;;4.47;1.88;;;15.00;93.50;;;;;;5015742;28;20120;-65
2022/09/23 10:07:27;;;;;;;3.30;1.25;;;15.00;93.00;;;;;;5037733;28;20540;-66
2022/09/23 10:09:53;;;;;;;4.95;1.25;;;15.10;93.40;;;;;;5045458;28;20047;-65
2022/09/23 10:12:20;;;;;;;;;;;15.10;92.30;;;;;;5046151;28;20037;-65
2022/09/23 10:14:49;;;;;;;;;;;15.20;92.80;;;;;;5045366;28;19927;-64
2022/09/23 10:17:38;;;;;;;3.22;1.50;;;15.30;93.90;;;;;;5044898;28;19920;-65
2022/09/23 10:20:08;;;;;;;3.63;1.30;;;15.40;92.30;;;;;;5042936;28;20130;-65
2022/09/23 10:22:41;;;;;;;4.00;1.60;;;15.50;92.50;;;;;;5045891;28;20055;-67
2022/09/23 10:25:14;;;;;;;6.47;1.65;;;15.60;92.60;;;;;;5044231;28;20033;-65
2022/09/23 10:27:40;;;;;;;2.90;1.42;;;15.60;91.90;;;;;;5046044;28;20179;-66
2022/09/23 10:30:25;;;;;;;;;;;15.60;93.10;;;;;;5047030;28;20136;-68
2022/09/23 10:32:53;;;;;;;2.50;1.25;;;15.60;92.80;;;;;;5065645;28;19923;-66
2022/09/23 10:35:23;;;;;;;2.20;1.55;;;15.70;93.10;;;;;;5073370;28;20036;-65
2022/09/23 10:37:56;;;;;;;5.82;1.70;;;15.80;93.10;;;;;;5057090;28;20040;-67
2022/09/23 10:46:46;;;;;;;2.00;1.30;;;15.80;90.50;;;;;;5070287;28;20087;-66
2022/09/23 10:49:38;;;;;;;3.22;1.30;;;15.70;90.90;;;;;;5059378;28;20283;-69
2022/09/23 10:52:10;;;;;;;2.03;1.50;;;15.80;92.00;;;;;;5076428;28;20036;-66
2022/09/23 10:54:38;;;;;;;3.25;1.38;;;15.90;93.40;;;;;;5070234;28;20043;-67
2022/09/23 10:57:41;;;;;;;3.72;1.73;;;16.00;93.80;;;;;;5081678;28;20749;-66
2022/09/23 11:00:10;;;;;;;2.13;1.52;;;15.90;94.20;;;;;;5075124;28;20036;-67
2022/09/23 11:03:10;;;;;;;2.88;1.20;;;15.90;95.10;;;;;;5070507;28;20560;-67
2022/09/23 11:05:35;;;;;;;1.98;1.70;;;15.90;93.70;;;;;;5070405;28;20519;-67
2022/09/23 11:08:04;;;;;;;;;;;15.90;94.50;;;;;;5073400;28;20107;-67
2022/09/23 11:10:43;;;;;;;4.32;1.70;;;15.80;94.50;;;;;;5066440;28;19920;-67
2022/09/23 11:13:29;;;;;;;3.10;1.48;;;15.70;94.50;;;;;;5075832;28;20070;-67
2022/09/23 11:16:35;;;;;;;4.35;1.95;;;15.70;95.20;;;;;;5068902;28;20044;-67
2022/09/23 11:19:16;;;;;;;3.53;1.88;;;15.70;95.00;;;;;;5061765;28;20075;-67
2022/09/23 11:22:14;;;;;;;2.25;1.60;;;15.60;95.10;;;;;;5081127;28;20072;-66
2022/09/23 11:24:46;;;;;;;4.32;1.80;;;15.50;94.80;;;;;;5070154;28;20589;-66
2022/09/23 11:27:15;;;;;;;2.65;1.60;;;15.50;94.70;;;;;;5072677;28;20052;-67
2022/09/23 11:30:08;;;;;;;3.97;1.50;;;15.40;94.90;;;;;;5076002;28;20496;-68
2022/09/23 11:32:42;;;;;;;4.38;1.77;;;15.40;95.20;;;;;;5065492;28;20048;-69
2022/09/23 11:35:20;;;;;;;1.95;1.52;;;15.30;94.90;;;;;;5072275;28;20046;-68
2022/09/23 11:37:57;;;;;;;3.05;1.70;;;15.40;94.70;;;;;;5069906;28;20048;-67
2022/09/23 11:40:41;;;;;;;3.58;1.77;;;15.40;95.00;;;;;;5061596;28;20393;-67
2022/09/23 11:43:27;;;;;;;4.72;2.10;;;15.50;95.50;;;;;;5067811;28;20039;-68
2022/09/23 11:46:14;;;;;;;2.33;1.95;;;15.40;95.00;;;;;;5058269;28;20036;-67
2022/09/23 11:48:50;;;;;;;2.47;1.58;;;15.40;94.90;;;;;;5072851;28;20058;-67
2022/09/23 11:51:41;;;;;;;2.28;1.77;;;15.40;95.00;;;;;;5073226;28;20039;-67
2022/09/23 11:54:25;;;;;;;2.95;1.63;;;15.40;95.40;;;;;;5049277;28;20033;-68
2022/09/23 11:56:59;;;;;;;2.92;1.50;;;15.40;95.40;;;;;;5069716;28;20048;-65
2022/09/23 11:59:27;;;;;;;4.80;1.67;;;15.50;95.70;;;;;;5078793;28;20048;-67
2022/09/23 12:02:02;;;;;;;2.38;1.77;;;15.50;95.60;;;;;;5075966;28;20086;-67
2022/09/23 12:04:42;;;;;;;3.00;1.65;;;15.50;95.20;;;;;;5070870;28;20044;-66
2022/09/23 12:07:21;;;;;;;3.33;1.70;;;15.60;95.20;;;;;;5070358;28;20047;-66
2022/09/23 12:09:59;;;;;;;12.18;2.05;;;15.60;94.40;;;;;;5070157;28;20115;-68
2022/09/23 12:12:57;;;;;;;3.40;1.77;;;15.50;94.50;;;;;;5067158;28;20051;-67
2022/09/23 12:15:41;;;;;;;5.20;1.80;;;15.60;95.10;;;;;;5066398;28;20389;-67
2022/09/23 12:18:13;;;;;;;3.50;1.80;;;15.70;95.70;;;;;;5074882;28;20577;-67
2022/09/23 12:21:08;;;;;;;2.58;1.50;;;15.80;94.40;;;;;;5074367;28;20065;-67
2022/09/23 12:23:52;;;;;;;5.57;1.83;;;15.90;94.10;;;;;;5073195;28;20040;-66
2022/09/23 12:26:22;;;;;;;7.63;1.95;;;16.00;93.60;;;;;;5081464;28;20130;-66
2022/09/23 12:28:50;;;;;;;2.88;1.80;;;16.10;94.00;;;;;;5074130;28;20530;-67
2022/09/23 12:31:29;;;;;;;4.13;1.67;;;16.20;94.20;;;;;;5080902;28;20452;-68
2022/09/23 12:33:59;;;;;;;2.38;1.30;;;16.30;93.00;;;;;;5071020;28;20119;-67
2022/09/23 12:36:34;;;;;;;6.82;1.80;;;16.30;94.60;;;;;;5078715;28;20040;-66
2022/09/23 12:39:06;;;;;;;4.15;1.60;;;16.30;94.00;;;;;;5067063;28;20052;-67
2022/09/23 12:41:35;;;;;;;3.40;1.98;;;16.40;93.80;;;;;;5063541;28;20744;-68
2022/09/23 12:44:11;;;;;;;5.97;1.80;;;16.30;93.10;;;;;;5074501;28;20544;-66
2022/09/23 12:46:38;;;;;;;3.03;1.55;;;16.30;93.40;;;;;;5075699;28;20129;-67
2022/09/23 12:49:20;;;;;;;2.25;1.55;;;16.20;92.90;;;;;;5065781;28;20044;-66
2022/09/23 12:52:11;;;;;;;2.88;1.40;;;16.20;94.10;;;;;;5074619;28;20407;-66
2022/09/23 12:54:39;;;;;;;5.32;1.45;;;16.30;94.40;;;;;;5065899;28;20048;-67
2022/09/23 12:57:08;;;;;;;3.22;0.98;;;16.30;91.50;;;;;;5072964;28;20040;-67
2022/09/23 12:59:54;;;;;;;2.15;1.50;;;16.30;90.80;;;;;;5073223;28;20048;-67
2022/09/23 13:02:33;;;;;;;2.70;1.17;;;16.40;92.00;;;;;;5070579;28;20040;-67
2022/09/23 13:07:58;;;;;;;2.17;1.23;;;16.30;90.00;;;;;;5074486;28;20052;-67
2022/09/23 13:10:29;;;;;;;2.25;1.13;;;16.30;91.80;;;;;;5075126;28;20036;-66
2022/09/23 13:12:57;;;;;;;2.35;1.60;;;16.20;91.30;;;;;;5076207;28;20426;-66
2022/09/23 13:15:28;;;;;;;2.20;1.05;;;16.10;90.80;;;;;;5079427;28;20109;-67
2022/09/23 13:18:48;;;;;;;2.30;1.20;;;16.00;91.30;;;;;;5067467;28;20090;-67
2022/09/23 13:21:42;;;;;;;1.75;1.25;;;16.00;91.50;;;;;;5036713;28;20084;-68
2022/09/23 13:24:28;;;;;;;1.77;1.00;;;16.00;92.60;;;;;;5068019;28;20047;-67
2022/09/23 13:27:16;;;;;;;7.88;1.40;;;16.00;92.20;;;;;;5053965;28;20730;-68
2022/09/23 13:30:00;;;;;;;1.17;0.90;;;15.90;91.50;;;;;;5075812;28;20800;-67
2022/09/23 13:32:33;;;;;;;1.90;1.40;;;15.90;91.80;;;;;;5069102;28;20420;-66
2022/09/23 13:35:32;;;;;;;1.90;0.82;;;15.80;92.10;;;;;;5062241;28;20046;-66
2022/09/23 13:38:07;;;;;;;3.05;1.23;;;15.90;92.80;;;;;;5065748;28;20093;-68
2022/09/23 13:40:34;;;;;;;1.95;1.35;;;15.80;94.20;;;;;;5079471;28;20044;-67
2022/09/23 13:43:31;;;;;;;4.65;1.50;;;15.80;94.00;;;;;;5079183;28;20066;-67
2022/09/23 13:45:58;;;;;;;2.22;1.00;;;15.90;93.50;;;;;;5069841;28;20094;-66
2022/09/23 13:48:26;;;;;;;1.52;1.08;;;15.90;93.60;;;;;;5069165;28;20041;-67